sensor_id;sensor_type;location;lat;lon;timestamp;temperature;humidity
28845;DHT22;15976;47.938;7.758;2024-03-06T00:00:13;8.20;79.50
28845;DHT22;15976;47.938;7.758;2024-03-06T00:02:40;8.20;79.90
28845;DHT22;15976;47.938;7.758;2024-03-06T00:05:07;8.20;80.20
28845;DHT22;15976;47.938;7.758;2024-03-06T00:07:35;8.20;80.60
28845;DHT22;15976;47.938;7.758;2024-03-06T00:10:03;8.20;80.60
28845;DHT22;15976;47.938;7.758;2024-03-06T00:12:32;8.20;80.70
28845;DHT22;15976;47.938;7.758;2024-03-06T00:15:00;8.30;80.70
28845;DHT22;15976;47.938;7.758;2024-03-06T00:17:27;8.30;80.70
28845;DHT22;15976;47.938;7.758;2024-03-06T00:19:54;8.30;80.80
28845;DHT22;15976;47.938;7.758;2024-03-06T00:22:21;8.30;80.90
28845;DHT22;15976;47.938;7.758;2024-03-06T00:24:51;8.40;80.90
28845;DHT22;15976;47.938;7.758;2024-03-06T00:27:18;8.40;81.00
28845;DHT22;15976;47.938;7.758;2024-03-06T00:29:45;8.40;80.90
28845;DHT22;15976;47.938;7.758;2024-03-06T00:32:12;8.40;81.00
28845;DHT22;15976;47.938;7.758;2024-03-06T00:34:39;8.40;81.20
28845;DHT22;15976;47.938;7.758;2024-03-06T00:37:07;8.40;81.40
28845;DHT22;15976;47.938;7.758;2024-03-06T00:39:34;8.40;81.10
28845;DHT22;15976;47.938;7.758;2024-03-06T00:42:02;8.40;81.40
28845;DHT22;15976;47.938;7.758;2024-03-06T00:44:29;8.40;81.50
28845;DHT22;15976;47.938;7.758;2024-03-06T00:46:57;8.40;81.40
28845;DHT22;15976;47.938;7.758;2024-03-06T00:49:24;8.40;81.40
28845;DHT22;15976;47.938;7.758;2024-03-06T00:51:52;8.50;81.80
28845;DHT22;15976;47.938;7.758;2024-03-06T00:54:19;8.50;82.10
28845;DHT22;15976;47.938;7.758;2024-03-06T00:56:46;8.50;82.10
28845;DHT22;15976;47.938;7.758;2024-03-06T00:59:13;8.50;81.80
28845;DHT22;15976;47.938;7.758;2024-03-06T01:01:40;8.40;81.40
28845;DHT22;15976;47.938;7.758;2024-03-06T01:04:08;8.40;82.60
28845;DHT22;15976;47.938;7.758;2024-03-06T01:06:35;8.30;81.80
28845;DHT22;15976;47.938;7.758;2024-03-06T01:09:02;8.30;81.80
28845;DHT22;15976;47.938;7.758;2024-03-06T01:11:29;8.30;82.10
28845;DHT22;15976;47.938;7.758;2024-03-06T01:13:56;8.30;82.30
28845;DHT22;15976;47.938;7.758;2024-03-06T01:16:24;8.30;82.20
28845;DHT22;15976;47.938;7.758;2024-03-06T01:18:50;8.40;82.20
28845;DHT22;15976;47.938;7.758;2024-03-06T01:21:17;8.40;81.90
28845;DHT22;15976;47.938;7.758;2024-03-06T01:23:44;8.40;82.00
28845;DHT22;15976;47.938;7.758;2024-03-06T01:26:11;8.50;82.00
28845;DHT22;15976;47.938;7.758;2024-03-06T01:28:39;8.50;81.80
28845;DHT22;15976;47.938;7.758;2024-03-06T01:31:06;8.60;81.80
28845;DHT22;15976;47.938;7.758;2024-03-06T01:33:33;8.60;81.60
28845;DHT22;15976;47.938;7.758;2024-03-06T01:36:00;8.60;81.70
28845;DHT22;15976;47.938;7.758;2024-03-06T01:38:28;8.60;81.80
28845;DHT22;15976;47.938;7.758;2024-03-06T01:40:55;8.60;82.00
28845;DHT22;15976;47.938;7.758;2024-03-06T01:43:23;8.70;82.00
28845;DHT22;15976;47.938;7.758;2024-03-06T01:45:52;8.70;82.00
28845;DHT22;15976;47.938;7.758;2024-03-06T01:48:28;8.60;81.60
28845;DHT22;15976;47.938;7.758;2024-03-06T01:50:57;8.60;81.80
28845;DHT22;15976;47.938;7.758;2024-03-06T01:53:26;8.60;81.90
28845;DHT22;15976;47.938;7.758;2024-03-06T01:55:54;8.70;81.80
28845;DHT22;15976;47.938;7.758;2024-03-06T01:58:23;8.60;81.70
28845;DHT22;15976;47.938;7.758;2024-03-06T02:00:51;8.70;82.10
28845;DHT22;15976;47.938;7.758;2024-03-06T02:03:20;8.60;82.10
28845;DHT22;15976;47.938;7.758;2024-03-06T02:05:49;8.70;82.00
28845;DHT22;15976;47.938;7.758;2024-03-06T02:08:16;8.60;82.00
28845;DHT22;15976;47.938;7.758;2024-03-06T02:10:45;8.60;82.00
28845;DHT22;15976;47.938;7.758;2024-03-06T02:13:13;8.60;82.20
28845;DHT22;15976;47.938;7.758;2024-03-06T02:15:42;8.60;82.30
28845;DHT22;15976;47.938;7.758;2024-03-06T02:18:10;8.70;82.60
28845;DHT22;15976;47.938;7.758;2024-03-06T02:20:38;8.70;82.60
28845;DHT22;15976;47.938;7.758;2024-03-06T02:23:09;8.80;82.70
28845;DHT22;15976;47.938;7.758;2024-03-06T02:25:36;8.70;82.60
28845;DHT22;15976;47.938;7.758;2024-03-06T02:28:03;8.80;82.70
28845;DHT22;15976;47.938;7.758;2024-03-06T02:30:30;8.80;83.10
28845;DHT22;15976;47.938;7.758;2024-03-06T02:33:04;8.80;82.40
28845;DHT22;15976;47.938;7.758;2024-03-06T02:35:31;8.70;82.30
28845;DHT22;15976;47.938;7.758;2024-03-06T02:37:59;8.80;82.60
28845;DHT22;15976;47.938;7.758;2024-03-06T02:40:26;8.70;82.60
28845;DHT22;15976;47.938;7.758;2024-03-06T02:42:54;8.80;82.60
28845;DHT22;15976;47.938;7.758;2024-03-06T02:45:21;8.80;82.60
28845;DHT22;15976;47.938;7.758;2024-03-06T02:47:48;8.80;82.60
28845;DHT22;15976;47.938;7.758;2024-03-06T02:50:15;8.80;82.60
28845;DHT22;15976;47.938;7.758;2024-03-06T02:52:42;8.80;82.40
28845;DHT22;15976;47.938;7.758;2024-03-06T02:55:09;8.80;82.20
28845;DHT22;15976;47.938;7.758;2024-03-06T02:57:36;8.80;82.00
28845;DHT22;15976;47.938;7.758;2024-03-06T03:00:03;8.70;81.80
28845;DHT22;15976;47.938;7.758;2024-03-06T03:02:31;8.80;81.90
28845;DHT22;15976;47.938;7.758;2024-03-06T03:04:58;8.80;82.00
28845;DHT22;15976;47.938;7.758;2024-03-06T03:07:25;8.70;82.10
28845;DHT22;15976;47.938;7.758;2024-03-06T03:09:52;8.70;82.60
28845;DHT22;15976;47.938;7.758;2024-03-06T03:12:19;8.80;82.40
28845;DHT22;15976;47.938;7.758;2024-03-06T03:14:46;8.80;82.50
28845;DHT22;15976;47.938;7.758;2024-03-06T03:17:13;8.80;82.40
28845;DHT22;15976;47.938;7.758;2024-03-06T03:19:42;8.80;82.60
28845;DHT22;15976;47.938;7.758;2024-03-06T03:22:09;8.80;82.60
28845;DHT22;15976;47.938;7.758;2024-03-06T03:24:37;8.80;82.30
28845;DHT22;15976;47.938;7.758;2024-03-06T03:27:04;8.80;82.30
28845;DHT22;15976;47.938;7.758;2024-03-06T03:29:31;8.80;82.50
28845;DHT22;15976;47.938;7.758;2024-03-06T03:31:58;8.80;82.50
28845;DHT22;15976;47.938;7.758;2024-03-06T03:34:25;8.80;82.60
28845;DHT22;15976;47.938;7.758;2024-03-06T03:36:52;8.80;82.60
28845;DHT22;15976;47.938;7.758;2024-03-06T03:39:19;8.80;82.60
28845;DHT22;15976;47.938;7.758;2024-03-06T03:41:50;8.80;82.60
28845;DHT22;15976;47.938;7.758;2024-03-06T03:44:17;8.70;82.80
28845;DHT22;15976;47.938;7.758;2024-03-06T03:46:48;8.80;82.90
28845;DHT22;15976;47.938;7.758;2024-03-06T03:49:15;8.70;82.80
28845;DHT22;15976;47.938;7.758;2024-03-06T03:51:43;8.80;82.80
28845;DHT22;15976;47.938;7.758;2024-03-06T03:54:10;8.80;82.80
28845;DHT22;15976;47.938;7.758;2024-03-06T03:56:37;8.70;82.70
28845;DHT22;15976;47.938;7.758;2024-03-06T03:59:04;8.70;82.60
28845;DHT22;15976;47.938;7.758;2024-03-06T04:01:31;8.70;82.60
28845;DHT22;15976;47.938;7.758;2024-03-06T04:03:58;8.70;82.80
28845;DHT22;15976;47.938;7.758;2024-03-06T04:06:25;8.70;83.00
28845;DHT22;15976;47.938;7.758;2024-03-06T04:08:52;8.80;83.10
28845;DHT22;15976;47.938;7.758;2024-03-06T04:11:19;8.70;83.10
28845;DHT22;15976;47.938;7.758;2024-03-06T04:13:46;8.70;83.10
28845;DHT22;15976;47.938;7.758;2024-03-06T04:16:17;8.70;83.20
28845;DHT22;15976;47.938;7.758;2024-03-06T04:18:46;8.80;83.40
28845;DHT22;15976;47.938;7.758;2024-03-06T04:21:13;8.80;83.30
28845;DHT22;15976;47.938;7.758;2024-03-06T04:23:43;8.80;83.40
28845;DHT22;15976;47.938;7.758;2024-03-06T04:26:11;8.80;83.20
28845;DHT22;15976;47.938;7.758;2024-03-06T04:28:38;8.80;83.10
28845;DHT22;15976;47.938;7.758;2024-03-06T04:31:05;8.80;83.10
28845;DHT22;15976;47.938;7.758;2024-03-06T04:33:32;8.80;83.10
28845;DHT22;15976;47.938;7.758;2024-03-06T04:36:04;8.80;83.10
28845;DHT22;15976;47.938;7.758;2024-03-06T04:38:34;8.80;83.10
28845;DHT22;15976;47.938;7.758;2024-03-06T04:41:01;8.80;83.10
28845;DHT22;15976;47.938;7.758;2024-03-06T04:43:28;8.80;83.10
28845;DHT22;15976;47.938;7.758;2024-03-06T04:45:55;8.80;83.10
28845;DHT22;15976;47.938;7.758;2024-03-06T04:48:22;8.80;83.00
28845;DHT22;15976;47.938;7.758;2024-03-06T04:50:49;8.80;83.00
28845;DHT22;15976;47.938;7.758;2024-03-06T04:53:16;8.90;82.80
28845;DHT22;15976;47.938;7.758;2024-03-06T04:55:44;8.80;82.40
28845;DHT22;15976;47.938;7.758;2024-03-06T04:58:11;8.80;82.10
28845;DHT22;15976;47.938;7.758;2024-03-06T05:00:38;8.80;82.30
28845;DHT22;15976;47.938;7.758;2024-03-06T05:03:05;8.80;82.30
28845;DHT22;15976;47.938;7.758;2024-03-06T05:05:49;8.80;82.10
28845;DHT22;15976;47.938;7.758;2024-03-06T05:08:34;8.80;82.20
28845;DHT22;15976;47.938;7.758;2024-03-06T05:11:19;8.80;82.00
28845;DHT22;15976;47.938;7.758;2024-03-06T05:14:04;8.80;81.80
28845;DHT22;15976;47.938;7.758;2024-03-06T05:16:48;8.80;81.80
28845;DHT22;15976;47.938;7.758;2024-03-06T05:19:33;8.80;81.60
28845;DHT22;15976;47.938;7.758;2024-03-06T05:22:18;8.70;81.60
28845;DHT22;15976;47.938;7.758;2024-03-06T05:25:03;8.80;81.60
28845;DHT22;15976;47.938;7.758;2024-03-06T05:27:47;8.70;81.40
28845;DHT22;15976;47.938;7.758;2024-03-06T05:30:31;8.70;81.40
28845;DHT22;15976;47.938;7.758;2024-03-06T05:33:16;8.70;81.30
28845;DHT22;15976;47.938;7.758;2024-03-06T05:36:00;8.80;81.20
28845;DHT22;15976;47.938;7.758;2024-03-06T05:38:47;8.80;81.00
28845;DHT22;15976;47.938;7.758;2024-03-06T05:41:35;8.80;81.00
28845;DHT22;15976;47.938;7.758;2024-03-06T05:44:20;8.80;81.00
28845;DHT22;15976;47.938;7.758;2024-03-06T05:47:05;8.80;80.70
28845;DHT22;15976;47.938;7.758;2024-03-06T05:49:51;8.80;80.20
28845;DHT22;15976;47.938;7.758;2024-03-06T05:52:35;8.80;80.40
28845;DHT22;15976;47.938;7.758;2024-03-06T05:55:20;8.80;80.40
28845;DHT22;15976;47.938;7.758;2024-03-06T05:58:05;8.80;80.30
28845;DHT22;15976;47.938;7.758;2024-03-06T06:00:39;8.80;80.20
28845;DHT22;15976;47.938;7.758;2024-03-06T06:03:08;8.80;80.10
28845;DHT22;15976;47.938;7.758;2024-03-06T06:05:35;8.80;79.90
28845;DHT22;15976;47.938;7.758;2024-03-06T06:08:07;8.70;80.20
28845;DHT22;15976;47.938;7.758;2024-03-06T06:10:34;8.80;80.40
28845;DHT22;15976;47.938;7.758;2024-03-06T06:13:01;8.80;80.20
28845;DHT22;15976;47.938;7.758;2024-03-06T06:15:32;8.70;80.10
28845;DHT22;15976;47.938;7.758;2024-03-06T06:17:59;8.70;80.20
28845;DHT22;15976;47.938;7.758;2024-03-06T06:20:26;8.70;80.30
28845;DHT22;15976;47.938;7.758;2024-03-06T06:22:54;8.70;80.30
28845;DHT22;15976;47.938;7.758;2024-03-06T06:25:21;8.70;80.10
28845;DHT22;15976;47.938;7.758;2024-03-06T06:27:48;8.70;80.30
28845;DHT22;15976;47.938;7.758;2024-03-06T06:30:17;8.70;80.50
28845;DHT22;15976;47.938;7.758;2024-03-06T06:32:47;8.70;80.10
28845;DHT22;15976;47.938;7.758;2024-03-06T06:35:14;8.70;80.10
28845;DHT22;15976;47.938;7.758;2024-03-06T06:37:41;8.70;80.00
28845;DHT22;15976;47.938;7.758;2024-03-06T06:40:09;8.80;79.90
28845;DHT22;15976;47.938;7.758;2024-03-06T06:42:37;8.80;79.90
28845;DHT22;15976;47.938;7.758;2024-03-06T06:45:05;8.80;79.70
28845;DHT22;15976;47.938;7.758;2024-03-06T06:47:34;8.80;80.30
28845;DHT22;15976;47.938;7.758;2024-03-06T06:50:02;8.80;79.20
28845;DHT22;15976;47.938;7.758;2024-03-06T06:52:33;8.80;79.40
28845;DHT22;15976;47.938;7.758;2024-03-06T06:55:01;8.80;79.40
28845;DHT22;15976;47.938;7.758;2024-03-06T06:57:29;8.80;79.20
28845;DHT22;15976;47.938;7.758;2024-03-06T06:59:56;8.80;79.20
28845;DHT22;15976;47.938;7.758;2024-03-06T07:02:24;8.80;79.30
28845;DHT22;15976;47.938;7.758;2024-03-06T07:04:52;8.90;79.30
28845;DHT22;15976;47.938;7.758;2024-03-06T07:07:19;8.90;79.20
28845;DHT22;15976;47.938;7.758;2024-03-06T07:09:46;9.00;79.00
28845;DHT22;15976;47.938;7.758;2024-03-06T07:12:13;8.90;79.00
28845;DHT22;15976;47.938;7.758;2024-03-06T07:14:40;8.90;78.80
28845;DHT22;15976;47.938;7.758;2024-03-06T07:17:08;8.90;78.80
28845;DHT22;15976;47.938;7.758;2024-03-06T07:19:35;8.90;78.90
28845;DHT22;15976;47.938;7.758;2024-03-06T07:22:03;9.00;78.80
28845;DHT22;15976;47.938;7.758;2024-03-06T07:24:30;9.00;79.00
28845;DHT22;15976;47.938;7.758;2024-03-06T07:26:57;9.00;78.90
28845;DHT22;15976;47.938;7.758;2024-03-06T07:29:24;9.00;79.10
28845;DHT22;15976;47.938;7.758;2024-03-06T07:31:51;9.10;79.20
28845;DHT22;15976;47.938;7.758;2024-03-06T07:34:18;9.10;79.10
28845;DHT22;15976;47.938;7.758;2024-03-06T07:36:46;9.10;79.00
28845;DHT22;15976;47.938;7.758;2024-03-06T07:39:18;9.10;79.00
28845;DHT22;15976;47.938;7.758;2024-03-06T07:41:46;9.20;79.10
28845;DHT22;15976;47.938;7.758;2024-03-06T07:44:13;9.20;79.00
28845;DHT22;15976;47.938;7.758;2024-03-06T07:46:40;9.20;78.90
28845;DHT22;15976;47.938;7.758;2024-03-06T07:49:07;9.20;79.00
28845;DHT22;15976;47.938;7.758;2024-03-06T07:51:35;9.20;79.00
28845;DHT22;15976;47.938;7.758;2024-03-06T07:54:02;9.20;79.20
28845;DHT22;15976;47.938;7.758;2024-03-06T07:56:33;9.20;79.10
28845;DHT22;15976;47.938;7.758;2024-03-06T07:59:01;9.30;79.30
28845;DHT22;15976;47.938;7.758;2024-03-06T08:01:28;9.30;79.40
28845;DHT22;15976;47.938;7.758;2024-03-06T08:03:56;9.30;79.40
28845;DHT22;15976;47.938;7.758;2024-03-06T08:06:23;9.30;79.40
28845;DHT22;15976;47.938;7.758;2024-03-06T08:08:50;9.30;79.70
28845;DHT22;15976;47.938;7.758;2024-03-06T08:11:19;9.20;79.80
28845;DHT22;15976;47.938;7.758;2024-03-06T08:13:49;9.20;79.70
28845;DHT22;15976;47.938;7.758;2024-03-06T08:16:16;9.20;79.90
28845;DHT22;15976;47.938;7.758;2024-03-06T08:18:44;9.20;80.10
28845;DHT22;15976;47.938;7.758;2024-03-06T08:21:11;9.20;80.30
28845;DHT22;15976;47.938;7.758;2024-03-06T08:23:38;9.20;80.10
28845;DHT22;15976;47.938;7.758;2024-03-06T08:26:05;9.30;80.70
28845;DHT22;15976;47.938;7.758;2024-03-06T08:28:33;9.30;79.60
28845;DHT22;15976;47.938;7.758;2024-03-06T08:31:00;9.40;79.40
28845;DHT22;15976;47.938;7.758;2024-03-06T08:33:27;9.50;79.20
28845;DHT22;15976;47.938;7.758;2024-03-06T08:35:54;9.60;79.00
28845;DHT22;15976;47.938;7.758;2024-03-06T08:38:21;9.60;78.70
28845;DHT22;15976;47.938;7.758;2024-03-06T08:40:49;9.70;78.60
28845;DHT22;15976;47.938;7.758;2024-03-06T08:43:16;9.80;78.30
28845;DHT22;15976;47.938;7.758;2024-03-06T08:45:43;9.90;78.20
28845;DHT22;15976;47.938;7.758;2024-03-06T08:48:10;10.00;78.00
28845;DHT22;15976;47.938;7.758;2024-03-06T08:50:39;10.00;77.70
28845;DHT22;15976;47.938;7.758;2024-03-06T08:53:06;10.10;77.60
28845;DHT22;15976;47.938;7.758;2024-03-06T08:55:33;10.20;77.40
28845;DHT22;15976;47.938;7.758;2024-03-06T08:58:00;10.20;76.10
28845;DHT22;15976;47.938;7.758;2024-03-06T09:00:28;10.20;75.90
28845;DHT22;15976;47.938;7.758;2024-03-06T09:02:56;10.10;75.40
28845;DHT22;15976;47.938;7.758;2024-03-06T09:05:23;10.10;75.40
28845;DHT22;15976;47.938;7.758;2024-03-06T09:07:50;10.10;75.10
28845;DHT22;15976;47.938;7.758;2024-03-06T09:10:17;10.10;74.20
28845;DHT22;15976;47.938;7.758;2024-03-06T09:12:46;10.10;73.80
28845;DHT22;15976;47.938;7.758;2024-03-06T09:15:14;10.00;73.50
28845;DHT22;15976;47.938;7.758;2024-03-06T09:17:42;10.10;73.90
28845;DHT22;15976;47.938;7.758;2024-03-06T09:20:09;10.10;74.20
28845;DHT22;15976;47.938;7.758;2024-03-06T09:22:39;10.10;73.10
28845;DHT22;15976;47.938;7.758;2024-03-06T09:25:07;10.00;72.80
28845;DHT22;15976;47.938;7.758;2024-03-06T09:27:35;9.80;73.00
28845;DHT22;15976;47.938;7.758;2024-03-06T09:30:02;9.70;73.10
28845;DHT22;15976;47.938;7.758;2024-03-06T09:32:32;9.60;73.50
28845;DHT22;15976;47.938;7.758;2024-03-06T09:34:59;9.60;73.90
28845;DHT22;15976;47.938;7.758;2024-03-06T09:37:27;9.70;73.80
28845;DHT22;15976;47.938;7.758;2024-03-06T09:39:55;9.60;73.40
28845;DHT22;15976;47.938;7.758;2024-03-06T09:42:24;9.60;73.60
28845;DHT22;15976;47.938;7.758;2024-03-06T09:44:51;9.70;73.90
28845;DHT22;15976;47.938;7.758;2024-03-06T09:47:21;9.90;73.20
28845;DHT22;15976;47.938;7.758;2024-03-06T09:49:53;9.90;72.80
28845;DHT22;15976;47.938;7.758;2024-03-06T09:52:23;9.90;72.80
28845;DHT22;15976;47.938;7.758;2024-03-06T09:54:54;9.90;72.20
28845;DHT22;15976;47.938;7.758;2024-03-06T09:57:22;9.90;72.20
28845;DHT22;15976;47.938;7.758;2024-03-06T09:59:49;10.00;72.20
28845;DHT22;15976;47.938;7.758;2024-03-06T10:04:53;10.30;72.30
28845;DHT22;15976;47.938;7.758;2024-03-06T10:07:20;10.60;72.20
28845;DHT22;15976;47.938;7.758;2024-03-06T10:09:47;11.00;71.20
28845;DHT22;15976;47.938;7.758;2024-03-06T10:12:17;11.20;70.30
28845;DHT22;15976;47.938;7.758;2024-03-06T10:14:52;11.40;69.50
28845;DHT22;15976;47.938;7.758;2024-03-06T10:17:22;11.50;68.80
28845;DHT22;15976;47.938;7.758;2024-03-06T10:19:55;11.60;68.60
28845;DHT22;15976;47.938;7.758;2024-03-06T10:22:24;11.60;68.50
28845;DHT22;15976;47.938;7.758;2024-03-06T10:24:55;11.60;68.20
28845;DHT22;15976;47.938;7.758;2024-03-06T10:27:25;11.70;68.40
28845;DHT22;15976;47.938;7.758;2024-03-06T10:30:03;11.80;68.10
28845;DHT22;15976;47.938;7.758;2024-03-06T10:32:32;11.90;67.90
28845;DHT22;15976;47.938;7.758;2024-03-06T10:35:00;12.10;67.30
28845;DHT22;15976;47.938;7.758;2024-03-06T10:37:29;12.20;66.60
28845;DHT22;15976;47.938;7.758;2024-03-06T10:39:58;12.50;65.70
28845;DHT22;15976;47.938;7.758;2024-03-06T10:42:28;12.50;64.60
28845;DHT22;15976;47.938;7.758;2024-03-06T10:44:59;12.60;64.90
28845;DHT22;15976;47.938;7.758;2024-03-06T10:47:28;12.80;64.60
28845;DHT22;15976;47.938;7.758;2024-03-06T10:49:59;12.90;63.80
28845;DHT22;15976;47.938;7.758;2024-03-06T10:52:27;13.00;63.00
28845;DHT22;15976;47.938;7.758;2024-03-06T10:54:55;12.90;62.80
28845;DHT22;15976;47.938;7.758;2024-03-06T10:57:25;13.00;62.90
28845;DHT22;15976;47.938;7.758;2024-03-06T10:59:52;13.00;62.90
28845;DHT22;15976;47.938;7.758;2024-03-06T11:02:20;13.00;63.20
28845;DHT22;15976;47.938;7.758;2024-03-06T11:04:50;13.20;62.90
28845;DHT22;15976;47.938;7.758;2024-03-06T11:07:18;13.40;61.50
28845;DHT22;15976;47.938;7.758;2024-03-06T11:09:45;13.50;60.60
28845;DHT22;15976;47.938;7.758;2024-03-06T11:12:37;13.60;60.30
28845;DHT22;15976;47.938;7.758;2024-03-06T11:15:10;13.80;59.80
28845;DHT22;15976;47.938;7.758;2024-03-06T11:17:37;14.00;59.80
28845;DHT22;15976;47.938;7.758;2024-03-06T11:28:20;14.60;57.80
28845;DHT22;15976;47.938;7.758;2024-03-06T11:33:21;14.50;57.30
28845;DHT22;15976;47.938;7.758;2024-03-06T11:38:50;14.40;57.30
28845;DHT22;15976;47.938;7.758;2024-03-06T11:41:17;14.50;57.90
28845;DHT22;15976;47.938;7.758;2024-03-06T11:43:48;14.50;57.40
28845;DHT22;15976;47.938;7.758;2024-03-06T11:46:17;14.80;56.80
28845;DHT22;15976;47.938;7.758;2024-03-06T11:48:54;14.90;56.10
28845;DHT22;15976;47.938;7.758;2024-03-06T11:51:22;14.90;55.60
28845;DHT22;15976;47.938;7.758;2024-03-06T11:53:51;14.80;55.60
28845;DHT22;15976;47.938;7.758;2024-03-06T11:56:19;14.60;55.50
28845;DHT22;15976;47.938;7.758;2024-03-06T11:58:47;14.50;55.60
28845;DHT22;15976;47.938;7.758;2024-03-06T12:01:16;14.50;55.70
28845;DHT22;15976;47.938;7.758;2024-03-06T12:03:47;14.60;56.10
28845;DHT22;15976;47.938;7.758;2024-03-06T12:06:15;14.60;56.40
28845;DHT22;15976;47.938;7.758;2024-03-06T12:08:44;14.50;56.40
28845;DHT22;15976;47.938;7.758;2024-03-06T12:11:11;14.50;56.70
28845;DHT22;15976;47.938;7.758;2024-03-06T12:13:38;14.50;56.80
28845;DHT22;15976;47.938;7.758;2024-03-06T12:16:06;14.60;56.60
28845;DHT22;15976;47.938;7.758;2024-03-06T12:18:34;14.70;56.60
28845;DHT22;15976;47.938;7.758;2024-03-06T12:21:02;14.80;56.20
28845;DHT22;15976;47.938;7.758;2024-03-06T12:23:30;14.70;55.80
28845;DHT22;15976;47.938;7.758;2024-03-06T12:26:04;14.60;56.00
28845;DHT22;15976;47.938;7.758;2024-03-06T12:28:32;14.60;56.00
28845;DHT22;15976;47.938;7.758;2024-03-06T12:31:02;14.50;56.00
28845;DHT22;15976;47.938;7.758;2024-03-06T12:33:30;14.40;55.90
28845;DHT22;15976;47.938;7.758;2024-03-06T12:36:05;14.40;55.80
28845;DHT22;15976;47.938;7.758;2024-03-06T12:38:33;14.20;55.50
28845;DHT22;15976;47.938;7.758;2024-03-06T12:41:00;14.30;55.90
28845;DHT22;15976;47.938;7.758;2024-03-06T12:43:28;14.40;56.10
28845;DHT22;15976;47.938;7.758;2024-03-06T12:45:56;14.50;55.90
28845;DHT22;15976;47.938;7.758;2024-03-06T12:48:25;14.70;55.70
28845;DHT22;15976;47.938;7.758;2024-03-06T12:50:52;15.00;55.50
28845;DHT22;15976;47.938;7.758;2024-03-06T12:53:21;15.10;55.20
28845;DHT22;15976;47.938;7.758;2024-03-06T12:55:48;15.30;54.80
28845;DHT22;15976;47.938;7.758;2024-03-06T12:58:16;15.30;54.40
28845;DHT22;15976;47.938;7.758;2024-03-06T13:00:43;15.40;54.60
28845;DHT22;15976;47.938;7.758;2024-03-06T13:03:10;15.60;54.30
28845;DHT22;15976;47.938;7.758;2024-03-06T13:05:37;15.70;53.80
28845;DHT22;15976;47.938;7.758;2024-03-06T13:08:05;15.80;53.70
28845;DHT22;15976;47.938;7.758;2024-03-06T13:10:32;15.80;53.50
28845;DHT22;15976;47.938;7.758;2024-03-06T13:12:59;15.70;53.00
28845;DHT22;15976;47.938;7.758;2024-03-06T13:15:26;15.50;52.80
28845;DHT22;15976;47.938;7.758;2024-03-06T13:17:53;15.30;53.10
28845;DHT22;15976;47.938;7.758;2024-03-06T13:20:21;15.20;53.50
28845;DHT22;15976;47.938;7.758;2024-03-06T13:22:48;15.00;53.50
28845;DHT22;15976;47.938;7.758;2024-03-06T13:25:15;14.80;53.80
28845;DHT22;15976;47.938;7.758;2024-03-06T13:27:42;14.70;53.90
28845;DHT22;15976;47.938;7.758;2024-03-06T13:30:09;14.60;53.90
28845;DHT22;15976;47.938;7.758;2024-03-06T13:32:36;14.50;54.10
28845;DHT22;15976;47.938;7.758;2024-03-06T13:35:04;14.50;54.40
28845;DHT22;15976;47.938;7.758;2024-03-06T13:37:33;14.50;54.70
28845;DHT22;15976;47.938;7.758;2024-03-06T13:40:01;14.60;54.80
28845;DHT22;15976;47.938;7.758;2024-03-06T13:42:29;14.60;54.90
28845;DHT22;15976;47.938;7.758;2024-03-06T13:44:56;14.50;55.00
28845;DHT22;15976;47.938;7.758;2024-03-06T13:47:23;14.40;55.10
28845;DHT22;15976;47.938;7.758;2024-03-06T13:49:51;14.40;55.60
28845;DHT22;15976;47.938;7.758;2024-03-06T13:52:18;14.30;55.70
28845;DHT22;15976;47.938;7.758;2024-03-06T13:54:47;14.10;55.90
28845;DHT22;15976;47.938;7.758;2024-03-06T13:57:17;13.90;56.40
28845;DHT22;15976;47.938;7.758;2024-03-06T13:59:45;13.70;57.00
28845;DHT22;15976;47.938;7.758;2024-03-06T14:02:12;13.70;57.70
28845;DHT22;15976;47.938;7.758;2024-03-06T14:04:39;13.50;57.80
28845;DHT22;15976;47.938;7.758;2024-03-06T14:07:07;13.40;58.10
28845;DHT22;15976;47.938;7.758;2024-03-06T14:09:34;13.20;58.50
28845;DHT22;15976;47.938;7.758;2024-03-06T14:12:01;13.00;58.90
28845;DHT22;15976;47.938;7.758;2024-03-06T14:14:29;12.70;58.90
28845;DHT22;15976;47.938;7.758;2024-03-06T14:16:56;12.50;59.40
28845;DHT22;15976;47.938;7.758;2024-03-06T14:19:23;12.50;59.60
28845;DHT22;15976;47.938;7.758;2024-03-06T14:21:50;12.40;59.50
28845;DHT22;15976;47.938;7.758;2024-03-06T14:24:18;12.40;59.70
28845;DHT22;15976;47.938;7.758;2024-03-06T14:26:47;12.50;59.60
28845;DHT22;15976;47.938;7.758;2024-03-06T14:29:16;12.60;59.60
28845;DHT22;15976;47.938;7.758;2024-03-06T14:31:43;12.60;59.60
28845;DHT22;15976;47.938;7.758;2024-03-06T14:34:10;12.60;59.80
28845;DHT22;15976;47.938;7.758;2024-03-06T14:36:38;12.60;60.20
28845;DHT22;15976;47.938;7.758;2024-03-06T14:39:05;12.60;60.20
28845;DHT22;15976;47.938;7.758;2024-03-06T14:41:34;12.60;60.30
28845;DHT22;15976;47.938;7.758;2024-03-06T14:44:01;12.40;60.70
28845;DHT22;15976;47.938;7.758;2024-03-06T14:46:28;12.30;61.50
28845;DHT22;15976;47.938;7.758;2024-03-06T14:48:56;12.30;62.10
28845;DHT22;15976;47.938;7.758;2024-03-06T14:51:23;12.20;62.20
28845;DHT22;15976;47.938;7.758;2024-03-06T14:53:50;12.10;62.80
28845;DHT22;15976;47.938;7.758;2024-03-06T14:56:17;12.10;63.20
28845;DHT22;15976;47.938;7.758;2024-03-06T14:58:45;12.00;63.10
28845;DHT22;15976;47.938;7.758;2024-03-06T15:01:12;11.90;63.60
28845;DHT22;15976;47.938;7.758;2024-03-06T15:03:40;11.90;63.80
28845;DHT22;15976;47.938;7.758;2024-03-06T15:06:07;11.90;64.00
28845;DHT22;15976;47.938;7.758;2024-03-06T15:08:34;11.90;64.50
28845;DHT22;15976;47.938;7.758;2024-03-06T15:11:01;11.90;64.70
28845;DHT22;15976;47.938;7.758;2024-03-06T15:13:29;12.00;65.00
28845;DHT22;15976;47.938;7.758;2024-03-06T15:15:56;12.00;64.70
28845;DHT22;15976;47.938;7.758;2024-03-06T15:18:23;11.90;64.30
28845;DHT22;15976;47.938;7.758;2024-03-06T15:20:51;11.80;64.10
28845;DHT22;15976;47.938;7.758;2024-03-06T15:23:18;11.70;64.10
28845;DHT22;15976;47.938;7.758;2024-03-06T15:25:45;11.70;64.10
28845;DHT22;15976;47.938;7.758;2024-03-06T15:28:12;11.60;63.80
28845;DHT22;15976;47.938;7.758;2024-03-06T15:30:40;11.50;63.50
28845;DHT22;15976;47.938;7.758;2024-03-06T15:33:07;11.40;64.20
28845;DHT22;15976;47.938;7.758;2024-03-06T15:35:34;11.40;64.30
28845;DHT22;15976;47.938;7.758;2024-03-06T15:38:03;11.50;64.30
28845;DHT22;15976;47.938;7.758;2024-03-06T15:40:30;11.40;63.60
28845;DHT22;15976;47.938;7.758;2024-03-06T15:42:57;11.40;63.90
28845;DHT22;15976;47.938;7.758;2024-03-06T15:45:24;11.40;64.10
28845;DHT22;15976;47.938;7.758;2024-03-06T15:47:51;11.30;64.60
28845;DHT22;15976;47.938;7.758;2024-03-06T15:50:19;11.30;65.00
28845;DHT22;15976;47.938;7.758;2024-03-06T15:52:46;11.30;65.20
28845;DHT22;15976;47.938;7.758;2024-03-06T15:55:13;11.20;65.70
28845;DHT22;15976;47.938;7.758;2024-03-06T15:57:40;11.20;66.10
28845;DHT22;15976;47.938;7.758;2024-03-06T16:00:07;11.20;66.30
28845;DHT22;15976;47.938;7.758;2024-03-06T16:02:42;11.10;66.60
28845;DHT22;15976;47.938;7.758;2024-03-06T16:05:09;11.10;66.80